Dades meteomassalio
Diari Summary for Noviembre 21, 2017 Units:  Metric    English   Both
« Previous Day
Next Day »
Diari Semanal Mensual Anual Personalitzat
  Maxima: Minima: Mijana:
Temperatura: 16.7 °C -4.4 °C 3.3 °C
Rosada: 0.8 °C -7.5 °C -4.6 °C
Humitat: 82 % 31 % 60 %
Velocitat del vent: 9.3 km/h 0.0 km/h 0.9 km/h
Racha vent: 9.3 km/h - -
Vent:- - ESE
Pressio: 1027.3 hPa 1023.6 hPa -
Pluja: 0.0 mm    
Historical Graphs
 
 
Tabular Data for Noviembre 21, 2017
Time Temperature Dew Point Pressure Wind Wind Speed Wind Gust Humidity Rainfall Rate (Hourly) solar Conditions
00:05 0.0 °C -5.0 °C 1027.0 hPa Calm     69 % 0.0 mm 0.0 W/m2 CLR
00:10 0.0 °C -4.8 °C 1027.0 hPa Calm     70 % 0.0 mm 0.0 W/m2 CLR
00:15 -0.6 °C -5.3 °C 1027.0 hPa Calm     70 % 0.0 mm 0.0 W/m2 CLR
00:20 -0.6 °C -5.3 °C 1027.0 hPa Calm     70 % 0.0 mm 0.0 W/m2 CLR
00:25 -0.6 °C -5.3 °C 1027.0 hPa Calm     70 % 0.0 mm 0.0 W/m2 CLR
00:35 -1.1 °C -5.9 °C 1027.0 hPa Calm     70 % 0.0 mm 0.0 W/m2 CLR
00:40 -1.1 °C -5.9 °C 1027.0 hPa Calm     70 % 0.0 mm 0.0 W/m2 CLR
00:45 -1.1 °C -5.7 °C 1027.0 hPa Calm     71 % 0.0 mm 0.0 W/m2 CLR
01:00 -1.7 °C -5.9 °C 1027.0 hPa Calm     73 % 0.0 mm 0.0 W/m2 CLR
01:05 -1.7 °C -5.9 °C 1027.0 hPa Calm     73 % 0.0 mm 0.0 W/m2 CLR
01:10 -1.7 °C -5.7 °C 1027.0 hPa Calm     74 % 0.0 mm 0.0 W/m2 CLR
01:15 -1.7 °C -5.9 °C 1027.0 hPa Calm     73 % 0.0 mm 0.0 W/m2 CLR
01:22 -1.7 °C -5.9 °C 1027.0 hPa Calm     73 % 0.0 mm 0.0 W/m2 CLR
01:27 -1.7 °C -5.9 °C 1027.0 hPa Calm     73 % 0.0 mm 0.0 W/m2 CLR
01:28 -1.7 °C -5.9 °C 1027.0 hPa Calm     73 % 0.0 mm 0.0 W/m2 CLR
01:29 -1.7 °C -5.9 °C 1027.0 hPa Calm     73 % 0.0 mm 0.0 W/m2 CLR
01:37 -2.2 °C -6.2 °C 1027.0 hPa Calm     74 % 0.0 mm 0.0 W/m2 CLR
01:47 -2.2 °C -6.2 °C 1027.0 hPa Calm     74 % 0.0 mm 0.0 W/m2 CLR
01:52 -2.2 °C -6.1 °C 1027.0 hPa Calm     75 % 0.0 mm 0.0 W/m2 CLR
01:57 -2.8 °C -6.6 °C 1027.0 hPa Calm     75 % 0.0 mm 0.0 W/m2 CLR
02:02 -2.8 °C -6.8 °C 1027.0 hPa Calm     74 % 0.0 mm 0.0 W/m2 CLR
02:07 -2.2 °C -6.6 °C 1027.0 hPa Calm     72 % 0.0 mm 0.0 W/m2 CLR
02:12 -2.2 °C -6.4 °C 1027.0 hPa Calm     73 % 0.0 mm 0.0 W/m2 CLR
02:22 -2.2 °C -6.2 °C 1027.0 hPa Calm     74 % 0.0 mm 0.0 W/m2 CLR
02:32 -2.2 °C -6.2 °C 1027.0 hPa Calm     74 % 0.0 mm 0.0 W/m2 CLR
02:37 -2.2 °C -6.2 °C 1027.0 hPa Calm     74 % 0.0 mm 0.0 W/m2 CLR
02:42 -2.2 °C -6.1 °C 1027.0 hPa Calm     75 % 0.0 mm 0.0 W/m2 CLR
02:47 -2.2 °C -6.1 °C 1027.0 hPa Calm     75 % 0.0 mm 0.0 W/m2 CLR
02:52 -2.2 °C -5.9 °C 1026.6 hPa Calm     76 % 0.0 mm 0.0 W/m2 CLR
02:57 -2.2 °C -5.9 °C 1026.6 hPa Calm     76 % 0.0 mm 0.0 W/m2 CLR
03:07 -2.2 °C -5.7 °C 1026.6 hPa Calm     77 % 0.0 mm 0.0 W/m2 CLR
03:12 -2.8 °C -6.3 °C 1026.6 hPa Calm     77 % 0.0 mm 0.0 W/m2 CLR
03:22 -2.2 °C -5.6 °C 1026.6 hPa Calm     78 % 0.0 mm 0.0 W/m2 CLR
03:27 -2.2 °C -5.6 °C 1026.3 hPa Calm     78 % 0.0 mm 0.0 W/m2 CLR
03:37 -1.7 °C -5.0 °C 1026.6 hPa Calm     78 % 0.0 mm 0.0 W/m2 CLR
03:42 -1.7 °C -5.3 °C 1026.3 hPa Calm     76 % 0.0 mm 0.0 W/m2 CLR
03:47 -2.2 °C -5.9 °C 1026.3 hPa Calm     76 % 0.0 mm 0.0 W/m2 CLR
03:53 -1.7 °C -5.2 °C 1026.3 hPa Calm     77 % 0.0 mm 0.0 W/m2 CLR
03:58 -1.7 °C -5.2 °C 1026.3 hPa Calm     77 % 0.0 mm 0.0 W/m2 CLR
04:03 -1.7 °C -5.0 °C 1026.3 hPa Calm     78 % 0.0 mm 0.0 W/m2 CLR
04:08 -1.7 °C -4.8 °C 1026.3 hPa Calm     79 % 0.0 mm 0.0 W/m2 CLR
04:14 -1.7 °C -4.8 °C 1026.3 hPa Calm     79 % 0.0 mm 0.0 W/m2 CLR
04:19 -2.2 °C -5.4 °C 1026.3 hPa Calm     79 % 0.0 mm 0.0 W/m2 CLR
04:24 -2.2 °C -5.6 °C 1026.3 hPa Calm     78 % 0.0 mm 0.0 W/m2 CLR
04:30 -2.2 °C -5.6 °C 1026.3 hPa Calm     78 % 0.0 mm 0.0 W/m2 CLR
04:35 -2.8 °C -5.9 °C 1026.3 hPa Calm     79 % 0.0 mm 0.0 W/m2 CLR
04:40 -2.8 °C -5.9 °C 1026.3 hPa Calm     79 % 0.0 mm 0.0 W/m2 CLR
04:45 -2.8 °C -5.7 °C 1026.3 hPa Calm     80 % 0.0 mm 0.0 W/m2 CLR
04:56 -2.2 °C -5.2 °C 1026.3 hPa Calm     80 % 0.0 mm 0.0 W/m2 CLR
05:01 -2.2 °C -5.2 °C 1026.3 hPa Calm     80 % 0.0 mm 0.0 W/m2 CLR
05:06 -2.2 °C -5.2 °C 1026.3 hPa Calm     80 % 0.0 mm 0.0 W/m2 CLR
05:21 -2.8 °C -5.7 °C 1026.0 hPa Calm     80 % 0.0 mm 0.0 W/m2 CLR
05:31 -2.8 °C -5.9 °C 1026.3 hPa Calm     79 % 0.0 mm 0.0 W/m2 CLR
05:36 -3.3 °C -6.4 °C 1026.3 hPa Calm     79 % 0.0 mm 0.0 W/m2 CLR
05:47 -3.3 °C -6.3 °C 1026.3 hPa Calm     80 % 0.0 mm 0.0 W/m2 CLR
05:52 -2.8 °C -5.6 °C 1026.3 hPa Calm     81 % 0.0 mm 0.0 W/m2 CLR
05:57 -2.8 °C -5.6 °C 1026.3 hPa Calm     81 % 0.0 mm 0.0 W/m2 CLR
06:02 -2.8 °C -5.4 °C 1026.3 hPa Calm     82 % 0.0 mm 0.0 W/m2 CLR
06:07 -2.8 °C -5.6 °C 1026.3 hPa Calm     81 % 0.0 mm 0.0 W/m2 CLR
06:12 -3.3 °C -5.9 °C 1026.3 hPa Calm     82 % 0.0 mm 0.0 W/m2 CLR
06:17 -3.3 °C -5.9 °C 1026.3 hPa Calm     82 % 0.0 mm 0.0 W/m2 CLR
06:22 -3.3 °C -5.9 °C 1026.3 hPa Calm     82 % 0.0 mm 0.0 W/m2 CLR
06:32 -3.9 °C -7.0 °C 1026.3 hPa Calm     79 % 0.0 mm 0.0 W/m2 CLR
06:37 -3.9 °C -6.7 °C 1026.3 hPa Calm     81 % 0.0 mm 0.0 W/m2 CLR
06:42 -3.9 °C -6.7 °C 1026.3 hPa Calm     81 % 0.0 mm 0.0 W/m2 CLR
06:52 -3.9 °C -6.5 °C 1026.3 hPa Calm     82 % 0.0 mm 0.0 W/m2 CLR
06:57 -3.9 °C -6.5 °C 1026.3 hPa Calm     82 % 0.0 mm 0.0 W/m2 CLR
07:02 -3.9 °C -6.7 °C 1026.3 hPa Calm     81 % 0.0 mm 0.0 W/m2 CLR
07:07 -4.4 °C -7.1 °C 1026.3 hPa Calm     82 % 0.0 mm 0.0 W/m2 CLR
07:12 -4.4 °C -7.2 °C 1026.3 hPa Calm     81 % 0.0 mm 0.0 W/m2 CLR
07:17 -4.4 °C -7.2 °C 1026.3 hPa Calm     81 % 0.0 mm 0.0 W/m2 CLR
07:22 -4.4 °C -7.2 °C 1026.3 hPa Calm     81 % 0.0 mm 0.0 W/m2 CLR
07:32 -3.9 °C -6.5 °C 1026.3 hPa Calm     82 % 0.0 mm 0.0 W/m2 CLR
07:37 -3.9 °C -6.5 °C 1026.6 hPa Calm     82 % 0.0 mm 0.0 W/m2 CLR
07:42 -3.9 °C -6.7 °C 1026.6 hPa Calm     81 % 0.0 mm 0.0 W/m2 CLR
07:47 -3.9 °C -6.7 °C 1026.3 hPa Calm     81 % 0.0 mm 5.0 W/m2 OVC
07:57 -3.9 °C -6.8 °C 1026.6 hPa Calm     80 % 0.0 mm 7.0 W/m2 BKN
08:02 -3.9 °C -6.8 °C 1026.6 hPa Calm     80 % 0.0 mm 12.0 W/m2 BKN
08:07 -3.9 °C -6.8 °C 1026.6 hPa Calm     80 % 0.0 mm 16.0 W/m2 BKN
08:12 -3.9 °C -6.7 °C 1026.6 hPa Calm     81 % 0.0 mm 18.0 W/m2 BKN
08:22 -3.9 °C -6.5 °C 1026.6 hPa Calm     82 % 0.0 mm 25.0 W/m2 BKN
08:27 -3.9 °C -6.7 °C 1026.6 hPa Calm     81 % 0.0 mm 33.0 W/m2 BKN
08:32 -3.9 °C -6.8 °C 1026.6 hPa Calm     80 % 0.0 mm 40.0 W/m2 BKN
08:42 -3.9 °C -7.0 °C 1027.0 hPa Calm     79 % 0.0 mm 54.0 W/m2 SCT
08:47 -3.9 °C -7.2 °C 1027.0 hPa Calm     78 % 0.0 mm 58.0 W/m2 SCT
08:58 -3.3 °C -7.1 °C 1027.0 hPa Calm     75 % 0.0 mm 100.0 W/m2 FEW
09:08 -2.8 °C -6.9 °C 1027.0 hPa Calm     73 % 0.0 mm 123.0 W/m2 CLR
09:23 -2.2 °C -7.2 °C 1027.0 hPa Calm     69 % 0.0 mm 172.0 W/m2 CLR
09:28 -2.2 °C -7.5 °C 1027.0 hPa Calm     67 % 0.0 mm 185.0 W/m2 CLR
09:38 -1.1 °C -6.8 °C 1027.3 hPa Calm     65 % 0.0 mm 214.0 W/m2 CLR
09:43 -0.6 °C -6.6 °C 1027.3 hPa Calm     64 % 0.0 mm 221.0 W/m2 CLR
09:48 -0.6 °C -6.6 °C 1027.0 hPa Calm     64 % 0.0 mm 246.0 W/m2 CLR
09:58 0.0 °C -6.8 °C 1027.3 hPa Calm     60 % 0.0 mm 265.0 W/m2 CLR
10:08 1.7 °C -5.9 °C 1027.3 hPa Calm     57 % 0.0 mm 295.0 W/m2 CLR
10:13 2.2 °C -5.9 °C 1027.0 hPa Calm     55 % 0.0 mm 306.0 W/m2 CLR
10:18 2.8 °C -5.4 °C 1027.0 hPa Calm     55 % 0.0 mm 316.0 W/m2 CLR
10:23 3.3 °C -5.1 °C 1027.0 hPa Calm     54 % 0.0 mm 327.0 W/m2 CLR
10:28 3.3 °C -5.6 °C 1027.0 hPa Calm     52 % 0.0 mm 334.0 W/m2 CLR
10:38 4.4 °C -5.3 °C 1027.0 hPa Calm     49 % 0.0 mm 355.0 W/m2 CLR
10:43 5.0 °C -5.1 °C 1027.0 hPa Calm     48 % 0.0 mm 355.0 W/m2 CLR
10:53 6.1 °C -4.9 °C 1027.0 hPa Calm     45 % 0.0 mm 360.0 W/m2 CLR
10:58 6.7 °C -4.4 °C 1027.0 hPa Calm     45 % 0.0 mm 392.0 W/m2 CLR
11:03 7.2 °C -3.9 °C 1027.0 hPa Calm     45 % 0.0 mm 401.0 W/m2 CLR
11:08 7.8 °C -3.4 °C 1027.0 hPa Calm     45 % 0.0 mm 408.0 W/m2 CLR
11:13 8.3 °C -2.9 °C 1027.3 hPa Calm     45 % 0.0 mm 415.0 W/m2 CLR
11:23 9.4 °C -2.5 °C 1027.0 hPa Calm     43 % 0.0 mm 427.0 W/m2 CLR
11:28 10.0 °C -2.0 °C 1027.0 hPa Calm     43 % 0.0 mm 434.0 W/m2 CLR
11:33 10.6 °C -1.5 °C 1027.0 hPa Calm     43 % 0.0 mm 438.0 W/m2 CLR
11:38 10.6 °C -1.5 °C 1027.0 hPa Calm     43 % 0.0 mm 445.0 W/m2 CLR
11:58 11.1 °C -1.0 °C 1026.6 hPa East 3.7 km/h 3.7 km/h 43 % 0.0 mm 461.0 W/m2 CLR
12:03 11.7 °C -0.8 °C 1026.6 hPa East 5.6 km/h 5.6 km/h 42 % 0.0 mm 464.0 W/m2 CLR
12:08 11.7 °C -0.8 °C 1026.6 hPa East 1.9 km/h 1.9 km/h 42 % 0.0 mm 469.0 W/m2 CLR
12:13 12.2 °C -0.3 °C 1026.3 hPa SE 5.6 km/h 5.6 km/h 42 % 0.0 mm 473.0 W/m2 CLR
12:18 12.2 °C -0.7 °C 1026.3 hPa East 4.8 km/h 4.8 km/h 41 % 0.0 mm 475.0 W/m2 CLR
12:23 12.8 °C -0.2 °C 1026.3 hPa East 4.8 km/h 4.8 km/h 41 % 0.0 mm 476.0 W/m2 CLR
12:28 12.8 °C -0.2 °C 1026.3 hPa ENE 5.6 km/h 5.6 km/h 41 % 0.0 mm 478.0 W/m2 CLR
12:38 13.3 °C 0.0 °C 1026.0 hPa SE 3.7 km/h 3.7 km/h 40 % 0.0 mm 480.0 W/m2 CLR
12:43 13.9 °C 0.8 °C 1026.0 hPa ENE 1.6 km/h 1.6 km/h 41 % 0.0 mm 480.0 W/m2 CLR
12:53 13.9 °C 0.2 °C 1026.0 hPa SE 5.6 km/h 5.6 km/h 39 % 0.0 mm 482.0 W/m2 CLR
12:58 14.4 °C 0.3 °C 1026.0 hPa East 6.4 km/h 6.4 km/h 38 % 0.0 mm 478.0 W/m2 CLR
13:03 14.4 °C -0.1 °C 1025.6 hPa Calm     37 % 0.0 mm 480.0 W/m2 CLR
13:08 14.4 °C -0.1 °C 1025.6 hPa ENE 5.6 km/h 5.6 km/h 37 % 0.0 mm 478.0 W/m2 CLR
13:13 15.0 °C 0.1 °C 1025.6 hPa Calm   1.1 km/h 36 % 0.0 mm 476.0 W/m2 CLR
13:18 15.0 °C 0.1 °C 1025.3 hPa ENE 5.6 km/h 5.6 km/h 36 % 0.0 mm 476.0 W/m2 CLR
13:23 15.0 °C 0.1 °C 1025.3 hPa NE 5.6 km/h 5.6 km/h 36 % 0.0 mm 473.0 W/m2 CLR
13:38 15.0 °C -0.8 °C 1025.3 hPa ENE 3.7 km/h   34 % 0.0 mm 462.0 W/m2 CLR
13:43 15.0 °C -1.6 °C 1025.3 hPa NE 5.6 km/h 5.6 km/h 32 % 0.0 mm 459.0 W/m2 CLR
13:54 15.6 °C -1.1 °C 1024.9 hPa ENE 4.8 km/h 4.8 km/h 32 % 0.0 mm 448.0 W/m2 CLR
13:59 15.6 °C -1.6 °C 1024.9 hPa ENE 6.4 km/h 6.4 km/h 31 % 0.0 mm 436.0 W/m2 CLR
14:04 16.1 °C -0.6 °C 1024.6 hPa ENE 5.6 km/h 5.6 km/h 32 % 0.0 mm 438.0 W/m2 CLR
14:14 16.1 °C -1.1 °C 1024.6 hPa NE 5.6 km/h 5.6 km/h 31 % 0.0 mm 427.0 W/m2 CLR
14:19 16.1 °C -0.6 °C 1024.6 hPa NE 3.7 km/h 3.7 km/h 32 % 0.0 mm 418.0 W/m2 CLR
14:29 16.1 °C -1.1 °C 1024.3 hPa Calm     31 % 0.0 mm 404.0 W/m2 CLR
14:34 16.1 °C -1.1 °C 1024.3 hPa Calm     31 % 0.0 mm 397.0 W/m2 CLR
14:39 16.1 °C -1.1 °C 1024.3 hPa Calm     31 % 0.0 mm 390.0 W/m2 CLR
14:44 16.1 °C -1.1 °C 1024.3 hPa Calm     31 % 0.0 mm 381.0 W/m2 CLR
14:54 16.1 °C -1.1 °C 1024.3 hPa East 3.7 km/h 3.7 km/h 31 % 0.0 mm 353.0 W/m2 CLR
14:59 16.1 °C -1.1 °C 1024.3 hPa East 1.9 km/h   31 % 0.0 mm 346.0 W/m2 CLR
15:04 16.7 °C -0.6 °C 1024.3 hPa Calm     31 % 0.0 mm 341.0 W/m2 CLR
15:09 16.7 °C -0.6 °C 1024.3 hPa Calm     31 % 0.0 mm 332.0 W/m2 CLR
15:14 16.7 °C -0.6 °C 1024.3 hPa East 3.7 km/h 3.7 km/h 31 % 0.0 mm 323.0 W/m2 CLR
15:19 16.7 °C -0.6 °C 1024.3 hPa East 3.7 km/h 3.7 km/h 31 % 0.0 mm 313.0 W/m2 CLR
15:24 16.7 °C -0.1 °C 1023.9 hPa East 3.2 km/h 3.2 km/h 32 % 0.0 mm 301.0 W/m2 CLR
15:29 16.7 °C -0.1 °C 1023.9 hPa Calm     32 % 0.0 mm 290.0 W/m2 CLR
15:34 16.7 °C -0.1 °C 1023.9 hPa ESE 5.6 km/h 5.6 km/h 32 % 0.0 mm 279.0 W/m2 CLR
15:44 16.7 °C -0.1 °C 1023.9 hPa East 4.8 km/h 4.8 km/h 32 % 0.0 mm 251.0 W/m2 CLR
15:54 16.1 °C -0.6 °C 1023.9 hPa East 5.6 km/h 5.6 km/h 32 % 0.0 mm 221.0 W/m2 CLR
15:59 16.1 °C -0.6 °C 1023.9 hPa ENE 3.7 km/h 3.7 km/h 32 % 0.0 mm 206.0 W/m2 CLR
16:09 15.6 °C -1.1 °C 1023.9 hPa ENE 5.6 km/h 5.6 km/h 32 % 0.0 mm 172.0 W/m2 CLR
16:19 15.0 °C -1.2 °C 1023.9 hPa ENE 5.6 km/h 5.6 km/h 33 % 0.0 mm 146.0 W/m2 CLR
16:24 15.0 °C -1.2 °C 1023.9 hPa East 5.6 km/h 5.6 km/h 33 % 0.0 mm 132.0 W/m2 CLR
16:29 14.4 °C -1.7 °C 1023.9 hPa Calm     33 % 0.0 mm 114.0 W/m2 CLR
16:34 14.4 °C -1.7 °C 1023.9 hPa ENE 3.7 km/h 3.7 km/h 33 % 0.0 mm 100.0 W/m2 CLR
16:39 13.9 °C -2.2 °C 1023.9 hPa East 5.6 km/h 5.6 km/h 33 % 0.0 mm 86.0 W/m2 CLR
16:49 12.8 °C -2.7 °C 1023.9 hPa Calm     34 % 0.0 mm 54.0 W/m2 SCT
16:59 11.7 °C -3.3 °C 1023.6 hPa Calm     35 % 0.0 mm 39.0 W/m2 BKN
17:04 11.1 °C -3.8 °C 1023.9 hPa Calm     35 % 0.0 mm 30.0 W/m2 BKN
17:09 10.6 °C -4.3 °C 1023.9 hPa Calm     35 % 0.0 mm 23.0 W/m2 BKN
17:14 10.0 °C -4.8 °C 1023.9 hPa Calm     35 % 0.0 mm 16.0 W/m2 BKN
17:29 8.3 °C -5.9 °C 1023.9 hPa Calm     36 % 0.0 mm 9.0 W/m2 BKN
17:34 7.8 °C -6.1 °C 1023.9 hPa Calm     37 % 0.0 mm 5.0 W/m2 OVC
17:39 7.8 °C -6.1 °C 1023.9 hPa Calm     37 % 0.0 mm 0.0 W/m2 OVC
17:44 7.2 °C -6.2 °C 1023.9 hPa Calm     38 % 0.0 mm 0.0 W/m2 OVC
17:49 7.2 °C -6.2 °C 1023.9 hPa Calm     38 % 0.0 mm 0.0 W/m2 CLR
17:54 7.2 °C -5.8 °C 1023.9 hPa Calm     39 % 0.0 mm 0.0 W/m2 CLR
18:09 8.3 °C -4.2 °C 1023.9 hPa Calm     41 % 0.0 mm 0.0 W/m2 CLR
18:14 7.8 °C -4.3 °C 1023.9 hPa Calm     42 % 0.0 mm 0.0 W/m2 CLR
18:24 7.2 °C -4.6 °C 1023.9 hPa Calm     43 % 0.0 mm 0.0 W/m2 CLR
18:29 6.7 °C -4.4 °C 1023.9 hPa Calm     45 % 0.0 mm 0.0 W/m2 CLR
18:34 6.7 °C -4.2 °C 1023.9 hPa Calm     46 % 0.0 mm 0.0 W/m2 CLR
18:39 6.1 °C -4.1 °C 1023.9 hPa Calm     48 % 0.0 mm 0.0 W/m2 CLR
18:44 6.1 °C -3.8 °C 1023.9 hPa Calm     49 % 0.0 mm 0.0 W/m2 CLR
18:49 5.6 °C -4.1 °C 1023.9 hPa Calm     50 % 0.0 mm 0.0 W/m2 CLR
18:59 4.4 °C -4.6 °C 1024.3 hPa Calm     52 % 0.0 mm 0.0 W/m2 CLR
19:09 4.4 °C -4.3 °C 1024.3 hPa Calm     53 % 0.0 mm 0.0 W/m2 CLR
19:14 3.9 °C -4.8 °C 1024.3 hPa Calm     53 % 0.0 mm 0.0 W/m2 CLR
19:19 3.9 °C -4.6 °C 1024.3 hPa Calm     54 % 0.0 mm 0.0 W/m2 CLR
19:29 3.3 °C -5.1 °C 1024.3 hPa Calm     54 % 0.0 mm 0.0 W/m2 CLR
19:34 2.8 °C -5.4 °C 1024.3 hPa Calm     55 % 0.0 mm 0.0 W/m2 CLR
19:35 2.8 °C -5.4 °C 1024.3 hPa Calm     55 % 0.0 mm 0.0 W/m2 CLR
19:39 2.2 °C -5.9 °C 1024.3 hPa Calm     55 % 0.0 mm 0.0 W/m2 CLR
19:44 1.7 °C -6.2 °C 1024.3 hPa Calm     56 % 0.0 mm 0.0 W/m2 CLR
19:50 1.7 °C -6.2 °C 1023.9 hPa Calm     56 % 0.0 mm 0.0 W/m2 CLR
19:54 1.1 °C -6.7 °C 1023.9 hPa Calm     56 % 0.0 mm 0.0 W/m2 CLR
20:05 1.1 °C -6.2 °C 1023.9 hPa Calm     58 % 0.0 mm 0.0 W/m2 CLR
20:10 1.1 °C -6.2 °C 1023.9 hPa Calm     58 % 0.0 mm 0.0 W/m2 CLR
20:15 1.1 °C -6.2 °C 1023.9 hPa Calm     58 % 0.0 mm 0.0 W/m2 CLR
20:20 1.1 °C -6.0 °C 1023.9 hPa Calm     59 % 0.0 mm 0.0 W/m2 CLR
20:30 0.6 °C -6.6 °C 1023.9 hPa Calm     59 % 0.0 mm 0.0 W/m2 CLR
20:35 0.6 °C -6.6 °C 1023.9 hPa Calm     59 % 0.0 mm 0.0 W/m2 CLR
20:40 0.6 °C -6.6 °C 1023.9 hPa Calm     59 % 0.0 mm 0.0 W/m2 CLR
20:45 0.0 °C -6.8 °C 1023.9 hPa Calm     60 % 0.0 mm 0.0 W/m2 CLR
20:55 0.0 °C -6.6 °C 1023.9 hPa Calm     61 % 0.0 mm 0.0 W/m2 CLR
21:00 0.0 °C -6.6 °C 1023.9 hPa Calm     61 % 0.0 mm 0.0 W/m2 CLR
21:10 1.1 °C -5.4 °C 1023.9 hPa Calm     62 % 0.0 mm 0.0 W/m2 CLR
21:20 1.7 °C -4.6 °C 1023.9 hPa WSW 3.7 km/h 3.7 km/h 63 % 0.0 mm 0.0 W/m2 CLR
21:30 1.1 °C -4.9 °C 1023.6 hPa Calm     64 % 0.0 mm 0.0 W/m2 CLR
21:35 1.1 °C -4.9 °C 1023.9 hPa Calm     64 % 0.0 mm 0.0 W/m2 CLR
21:40 1.1 °C -4.9 °C 1023.6 hPa Calm     64 % 0.0 mm 0.0 W/m2 CLR
21:45 1.1 °C -4.9 °C 1023.9 hPa WSW 3.7 km/h 3.7 km/h 64 % 0.0 mm 0.0 W/m2 CLR
21:50 1.1 °C -4.7 °C 1023.9 hPa Calm     65 % 0.0 mm 0.0 W/m2 CLR
22:00 1.1 °C -4.6 °C 1023.9 hPa WSW 3.7 km/h 3.7 km/h 66 % 0.0 mm 0.0 W/m2 CLR
22:05 0.6 °C -5.1 °C 1023.9 hPa Calm     66 % 0.0 mm 0.0 W/m2 CLR
22:10 0.6 °C -5.1 °C 1023.9 hPa Calm     66 % 0.0 mm 0.0 W/m2 CLR
22:15 0.6 °C -5.1 °C 1023.9 hPa WSW 3.2 km/h 3.2 km/h 66 % 0.0 mm 0.0 W/m2 CLR
22:20 0.0 °C -5.4 °C 1023.9 hPa Calm     67 % 0.0 mm 0.0 W/m2 CLR
22:25 0.0 °C -5.4 °C 1023.9 hPa Calm     67 % 0.0 mm 0.0 W/m2 CLR
22:30 0.0 °C -5.4 °C 1023.9 hPa Calm     67 % 0.0 mm 0.0 W/m2 CLR
22:35 0.0 °C -5.4 °C 1023.9 hPa Calm     67 % 0.0 mm 0.0 W/m2 CLR
22:42 0.0 °C -5.2 °C 1023.9 hPa West 3.7 km/h 3.7 km/h 68 % 0.0 mm 0.0 W/m2 CLR
22:47 0.6 °C -4.7 °C 1023.9 hPa WSW 3.7 km/h 3.7 km/h 68 % 0.0 mm 0.0 W/m2 CLR
22:52 0.6 °C -4.7 °C 1023.9 hPa WSW 5.6 km/h 5.6 km/h 68 % 0.0 mm 0.0 W/m2 CLR
22:57 0.0 °C -5.2 °C 1023.9 hPa Calm     68 % 0.0 mm 0.0 W/m2 CLR
23:02 0.0 °C -5.4 °C 1023.9 hPa Calm     67 % 0.0 mm 0.0 W/m2 CLR
23:07 0.0 °C -5.2 °C 1023.9 hPa Calm     68 % 0.0 mm 0.0 W/m2 CLR
23:12 0.0 °C -5.0 °C 1023.9 hPa Calm     69 % 0.0 mm 0.0 W/m2 CLR
23:22 0.0 °C -4.8 °C 1023.9 hPa Calm     70 % 0.0 mm 0.0 W/m2 CLR
23:27 0.0 °C -4.8 °C 1023.9 hPa Calm     70 % 0.0 mm 0.0 W/m2 CLR
23:32 -0.6 °C -5.6 °C 1023.9 hPa Calm     69 % 0.0 mm 0.0 W/m2 CLR
23:37 -0.6 °C -5.6 °C 1023.9 hPa Calm     69 % 0.0 mm 0.0 W/m2 CLR
23:44 -1.1 °C -5.9 °C 1023.9 hPa WSW 5.6 km/h 5.6 km/h 70 % 0.0 mm 0.0 W/m2 CLR
23:49 -1.1 °C -5.7 °C 1023.6 hPa Calm     71 % 0.0 mm 0.0 W/m2 CLR
23:54 -1.1 °C -5.7 °C 1023.6 hPa WSW 5.6 km/h 5.6 km/h 71 % 0.0 mm 0.0 W/m2 CLR
23:59 -1.1 °C -5.5 °C 1023.6 hPa WSW 9.3 km/h 9.3 km/h 72 % 0.0 mm 0.0 W/m2 CLR
Lo Temps de Massalio
Compliments of Weather Underground - 1 mb